Time;durP1;ratioP1;P1;durP2;ratioP2;P2;SDS_P1;SDS_P2;PMS_P1;PMS_P2;Temp;Humidity;BMP_temperature;BMP_pressure;BME280_temperature;BME280_humidity;BME280_pressure;Samples;Min_cycle;Max_cycle;Signal;HPM_P1;HPM_P2
2022/09/21 00:01:56;;;;;;;4.03;3.63;;;9.90;99.90;;;;;;5075847;28;20519;-75
2022/09/21 00:04:23;;;;;;;3.97;3.10;;;9.90;99.90;;;;;;5074670;28;20477;-74
2022/09/21 00:06:50;;;;;;;3.90;3.50;;;9.90;99.90;;;;;;5075121;28;20888;-74
2022/09/21 00:09:17;;;;;;;4.30;3.23;;;9.90;99.90;;;;;;5075134;28;20537;-74
2022/09/21 00:11:43;;;;;;;3.40;3.10;;;9.90;99.90;;;;;;5075094;28;20490;-74
2022/09/21 00:14:13;;;;;;;4.03;3.33;;;9.90;99.90;;;;;;5074654;28;20549;-74
2022/09/21 00:16:41;;;;;;;4.97;3.60;;;9.90;99.90;;;;;;5074909;28;20453;-74
2022/09/21 00:19:08;;;;;;;3.50;3.20;;;9.80;99.90;;;;;;5074494;28;20454;-74
2022/09/21 00:21:36;;;;;;;4.60;3.60;;;9.80;99.90;;;;;;5075182;28;20550;-74
2022/09/21 00:24:04;;;;;;;4.63;3.27;;;9.80;99.90;;;;;;5074777;28;20470;-74
2022/09/21 00:26:31;;;;;;;5.13;3.20;;;9.80;99.90;;;;;;5074292;28;20511;-74
2022/09/21 00:29:00;;;;;;;3.17;2.87;;;9.80;99.90;;;;;;5074776;28;20486;-74
2022/09/21 00:31:29;;;;;;;3.40;3.10;;;9.80;99.90;;;;;;5074508;28;20489;-73
2022/09/21 00:33:58;;;;;;;3.60;2.63;;;9.80;99.90;;;;;;5074517;28;20760;-74
2022/09/21 00:36:27;;;;;;;3.73;2.80;;;9.80;99.90;;;;;;5074697;28;20788;-72
2022/09/21 00:38:56;;;;;;;4.53;3.13;;;9.80;99.90;;;;;;5074666;28;20934;-72
2022/09/21 00:41:25;;;;;;;4.43;2.60;;;9.90;99.90;;;;;;5074278;28;20457;-71
2022/09/21 00:44:22;;;;;;;4.57;3.20;;;9.80;99.90;;;;;;5074429;28;20458;-73
2022/09/21 00:46:52;;;;;;;6.17;2.80;;;9.80;99.90;;;;;;5071186;28;20511;-72
2022/09/21 00:49:20;;;;;;;6.80;3.30;;;9.70;99.90;;;;;;5074185;28;20894;-72
2022/09/21 00:51:48;;;;;;;3.60;3.03;;;9.70;99.90;;;;;;5074308;28;20515;-72
2022/09/21 00:54:21;;;;;;;4.03;2.93;;;9.70;99.90;;;;;;5076596;28;20498;-72
2022/09/21 00:56:49;;;;;;;2.97;2.50;;;9.70;99.90;;;;;;5078516;28;20514;-73
2022/09/21 00:59:17;;;;;;;3.80;3.03;;;9.80;99.90;;;;;;5078659;28;20524;-73
2022/09/21 01:01:44;;;;;;;3.20;2.43;;;9.70;99.90;;;;;;5078725;28;20544;-72
2022/09/21 01:04:15;;;;;;;5.33;3.10;;;9.70;99.90;;;;;;5078016;28;20588;-72
2022/09/21 01:06:43;;;;;;;2.70;2.23;;;9.70;99.90;;;;;;5078329;28;20446;-72
2022/09/21 01:09:10;;;;;;;3.77;2.93;;;9.70;99.90;;;;;;5078165;28;20801;-74
2022/09/21 01:11:53;;;;;;;2.97;2.67;;;9.70;99.90;;;;;;5077927;28;20477;-74
2022/09/21 01:14:53;;;;;;;3.20;2.90;;;9.70;99.90;;;;;;5078619;28;20867;-74
2022/09/21 01:17:28;;;;;;;3.80;3.50;;;9.70;99.90;;;;;;5078215;28;20540;-74
2022/09/21 01:20:35;;;;;;;3.83;2.87;;;9.70;99.90;;;;;;5078034;28;20438;-74
2022/09/21 01:23:16;;;;;;;3.37;3.07;;;9.60;99.90;;;;;;5061085;28;20454;-75
2022/09/21 01:26:00;;;;;;;5.03;2.60;;;9.60;99.90;;;;;;5078014;28;20533;-75
2022/09/21 01:28:33;;;;;;;3.10;2.80;;;9.60;99.90;;;;;;5078278;28;20776;-72
2022/09/21 01:31:05;;;;;;;2.83;2.60;;;9.50;99.90;;;;;;5078322;28;20505;-72
2022/09/21 01:33:37;;;;;;;3.60;2.80;;;9.50;99.90;;;;;;5078069;28;20438;-73
2022/09/21 01:36:08;;;;;;;3.77;3.23;;;9.50;99.90;;;;;;5077884;28;20543;-73
2022/09/21 01:38:40;;;;;;;3.83;3.10;;;9.50;99.90;;;;;;5077862;28;20520;-73
2022/09/21 01:41:12;;;;;;;3.20;2.90;;;9.60;99.90;;;;;;5077260;28;20465;-72
2022/09/21 01:43:53;;;;;;;8.30;3.37;;;9.60;99.90;;;;;;5077150;28;20454;-74
2022/09/21 01:46:27;;;;;;;4.37;3.40;;;9.50;99.90;;;;;;5077195;28;20450;-75
2022/09/21 01:48:59;;;;;;;6.03;4.47;;;9.50;99.90;;;;;;5078243;28;20876;-74
2022/09/21 01:51:28;;;;;;;3.57;3.20;;;9.50;99.90;;;;;;5076914;28;20954;-74
2022/09/21 01:53:59;;;;;;;4.10;2.97;;;9.50;99.90;;;;;;5077141;28;20466;-73
2022/09/21 01:56:33;;;;;;;3.00;2.77;;;9.50;99.90;;;;;;5077494;28;20474;-73
2022/09/21 01:59:08;;;;;;;3.67;3.00;;;9.50;99.90;;;;;;5077275;28;20482;-73
2022/09/21 02:01:43;;;;;;;4.43;3.13;;;9.50;99.90;;;;;;5077103;28;20523;-72
2022/09/21 02:04:13;;;;;;;6.80;2.90;;;9.40;99.90;;;;;;5076507;28;20573;-72
2022/09/21 02:06:43;;;;;;;3.27;2.97;;;9.40;99.90;;;;;;5076096;28;20484;-72
2022/09/21 02:09:11;;;;;;;3.43;3.13;;;9.40;99.90;;;;;;5077029;28;20766;-74
2022/09/21 02:11:41;;;;;;;6.13;3.27;;;9.40;99.90;;;;;;5076735;28;20482;-75
2022/09/21 02:14:09;;;;;;;3.53;2.90;;;9.40;99.90;;;;;;5076651;28;20465;-72
2022/09/21 02:16:39;;;;;;;5.60;3.27;;;9.40;99.90;;;;;;5076915;28;20464;-74
2022/09/21 02:19:22;;;;;;;3.57;3.17;;;9.40;99.90;;;;;;5076955;28;20529;-74
2022/09/21 02:21:58;;;;;;;4.93;3.80;;;9.40;99.90;;;;;;5076479;28;20442;-74
2022/09/21 02:24:40;;;;;;;4.17;3.30;;;9.40;99.90;;;;;;5076469;28;20723;-74
2022/09/21 02:27:18;;;;;;;3.77;3.47;;;9.40;99.90;;;;;;5076565;28;20446;-74
2022/09/21 02:29:50;;;;;;;8.07;3.57;;;9.40;99.90;;;;;;5076599;28;20525;-74
2022/09/21 02:32:31;;;;;;;4.87;3.17;;;9.40;99.90;;;;;;5076423;28;20530;-74
2022/09/21 02:35:03;;;;;;;3.90;3.50;;;9.40;99.90;;;;;;5076458;28;20807;-72
2022/09/21 02:37:37;;;;;;;3.20;2.90;;;9.40;99.90;;;;;;5076520;28;20761;-72
2022/09/21 02:40:10;;;;;;;3.53;3.10;;;9.40;99.90;;;;;;5076337;28;20781;-73
2022/09/21 02:42:41;;;;;;;5.97;3.03;;;9.40;99.90;;;;;;5076490;28;20508;-74
2022/09/21 02:45:13;;;;;;;4.47;2.83;;;9.40;99.90;;;;;;5076024;28;20553;-74
2022/09/21 02:47:46;;;;;;;7.90;3.63;;;9.40;99.90;;;;;;5076071;28;20452;-75
2022/09/21 02:50:20;;;;;;;3.93;3.33;;;9.40;99.90;;;;;;5075675;28;20902;-75
2022/09/21 02:52:47;;;;;;;4.90;3.17;;;9.40;99.90;;;;;;5075897;28;20447;-75
2022/09/21 02:55:17;;;;;;;3.37;3.07;;;9.40;99.90;;;;;;5075982;28;20530;-75
2022/09/21 02:57:45;;;;;;;5.50;3.20;;;9.40;99.90;;;;;;5075623;28;20552;-75
2022/09/21 03:00:14;;;;;;;4.03;3.40;;;9.40;99.90;;;;;;5075748;28;20923;-75
2022/09/21 03:02:44;;;;;;;3.47;3.10;;;9.40;99.90;;;;;;5076341;28;20541;-75
2022/09/21 03:05:13;;;;;;;4.03;3.00;;;9.30;99.90;;;;;;5075265;28;20585;-74
2022/09/21 03:07:39;;;;;;;4.00;3.57;;;9.30;99.90;;;;;;5076132;28;20482;-74
2022/09/21 03:10:08;;;;;;;5.10;3.80;;;9.20;99.90;;;;;;5075576;28;20798;-73
2022/09/21 03:16:01;;;;;;;4.20;3.70;;;9.20;99.90;;;;;;5076514;28;20390;-73
2022/09/21 03:18:29;;;;;;;4.57;3.50;;;9.20;99.90;;;;;;5075572;28;20468;-73
2022/09/21 03:20:56;;;;;;;5.30;3.97;;;9.10;99.90;;;;;;5075800;28;20461;-73
2022/09/21 03:23:23;;;;;;;6.83;4.23;;;9.10;99.90;;;;;;5076080;28;20793;-72
2022/09/21 03:25:51;;;;;;;4.77;3.70;;;9.10;99.90;;;;;;5075569;28;20482;-72
2022/09/21 03:28:18;;;;;;;5.10;3.97;;;9.10;99.90;;;;;;5076238;28;20454;-72
2022/09/21 03:30:48;;;;;;;4.20;3.80;;;9.10;99.90;;;;;;5077723;28;20539;-74
2022/09/21 03:33:15;;;;;;;4.70;3.50;;;9.10;99.90;;;;;;5076927;28;20556;-75
2022/09/21 03:35:43;;;;;;;4.90;3.57;;;9.10;99.90;;;;;;5076110;28;20458;-73
2022/09/21 03:38:11;;;;;;;3.80;3.50;;;9.10;99.90;;;;;;5075276;28;20490;-72
2022/09/21 03:40:38;;;;;;;7.03;3.60;;;9.10;99.90;;;;;;5074647;28;20964;-73
2022/09/21 03:43:05;;;;;;;4.40;3.20;;;9.10;99.90;;;;;;5075567;28;20454;-74
2022/09/21 03:45:32;;;;;;;3.90;3.33;;;9.10;99.90;;;;;;5095754;28;20463;-74
2022/09/21 03:48:01;;;;;;;8.20;3.50;;;9.00;99.90;;;;;;5095527;28;20463;-72
2022/09/21 03:50:28;;;;;;;4.87;3.87;;;9.00;99.90;;;;;;5095540;28;20475;-72
2022/09/21 03:52:57;;;;;;;4.10;3.70;;;9.00;99.90;;;;;;5095955;28;20544;-72
2022/09/21 03:55:25;;;;;;;3.90;3.50;;;9.00;99.90;;;;;;5095241;28;20968;-72
2022/09/21 03:57:52;;;;;;;6.53;3.77;;;9.00;99.90;;;;;;5095403;28;20458;-74
2022/09/21 04:00:19;;;;;;;5.77;3.50;;;9.00;99.90;;;;;;5095654;28;20500;-72
2022/09/21 04:02:46;;;;;;;7.23;3.77;;;9.00;99.90;;;;;;5095433;28;20985;-72
2022/09/21 04:05:15;;;;;;;7.83;3.80;;;9.00;99.90;;;;;;5094534;28;20513;-72
2022/09/21 04:07:45;;;;;;;4.23;3.43;;;8.90;99.90;;;;;;5095491;28;20500;-71
2022/09/21 04:10:16;;;;;;;4.40;3.70;;;9.00;99.90;;;;;;5094831;28;20540;-72
2022/09/21 04:12:44;;;;;;;4.27;3.23;;;9.00;99.90;;;;;;5095115;28;20461;-72
2022/09/21 04:15:12;;;;;;;10.83;8.70;;;8.90;99.90;;;;;;5095024;28;20922;-73
2022/09/21 04:17:38;;;;;;;15.47;13.50;;;9.00;99.90;;;;;;5095817;28;20457;-71
2022/09/21 04:20:07;;;;;;;17.37;14.07;;;9.00;99.90;;;;;;5087699;28;20460;-72
2022/09/21 04:22:35;;;;;;;7.57;5.03;;;9.00;99.90;;;;;;5080098;28;20530;-72
2022/09/21 04:25:02;;;;;;;4.00;3.50;;;9.00;99.90;;;;;;5094924;28;20532;-74
2022/09/21 04:27:31;;;;;;;4.47;3.63;;;9.00;99.90;;;;;;5094352;28;20499;-74
2022/09/21 04:29:58;;;;;;;4.93;3.70;;;9.00;99.90;;;;;;5094481;28;20496;-73
2022/09/21 04:32:25;;;;;;;4.40;3.00;;;9.00;99.90;;;;;;5094515;28;20948;-74
2022/09/21 04:34:52;;;;;;;4.00;3.30;;;9.00;99.90;;;;;;5094934;28;20453;-74
2022/09/21 04:37:19;;;;;;;5.00;3.57;;;9.00;99.90;;;;;;5094787;28;20453;-74
2022/09/21 04:39:46;;;;;;;4.43;3.73;;;8.90;99.90;;;;;;5094305;28;20921;-74
2022/09/21 04:42:13;;;;;;;3.80;3.30;;;8.90;99.90;;;;;;5094651;28;20491;-74
2022/09/21 04:44:41;;;;;;;4.03;3.70;;;8.90;99.90;;;;;;5094706;28;20468;-74
2022/09/21 04:47:08;;;;;;;5.00;3.53;;;8.90;99.90;;;;;;5094688;28;20783;-72
2022/09/21 04:49:35;;;;;;;3.73;3.30;;;8.80;99.90;;;;;;5095152;28;20564;-72
2022/09/21 04:52:02;;;;;;;4.63;3.30;;;8.90;99.90;;;;;;5094282;28;20561;-72
2022/09/21 04:54:32;;;;;;;3.93;3.33;;;8.80;99.90;;;;;;5094697;28;20453;-74
2022/09/21 04:56:59;;;;;;;19.50;13.67;;;8.80;99.90;;;;;;5094633;28;20933;-73
2022/09/21 04:59:26;;;;;;;6.30;4.47;;;8.80;99.90;;;;;;5094784;28;20548;-73
2022/09/21 05:01:54;;;;;;;4.07;3.57;;;8.80;99.90;;;;;;5094918;28;20449;-74
2022/09/21 05:04:21;;;;;;;5.03;3.27;;;8.80;99.90;;;;;;5094013;28;20961;-73
2022/09/21 05:06:48;;;;;;;3.70;3.40;;;8.80;99.90;;;;;;5094344;28;20544;-74
2022/09/21 05:11:59;;;;;;;4.43;4.03;;;8.90;99.90;;;;;;5097247;28;21029;-73
2022/09/21 05:14:26;;;;;;;5.63;4.10;;;8.80;99.90;;;;;;5096497;28;20542;-75
2022/09/21 05:16:54;;;;;;;5.23;3.80;;;8.80;99.90;;;;;;5095245;28;20797;-74
2022/09/21 05:19:21;;;;;;;4.90;3.67;;;8.90;99.90;;;;;;5094831;28;20457;-74
2022/09/21 05:21:48;;;;;;;4.00;3.60;;;8.90;99.90;;;;;;5088727;28;20872;-74
2022/09/21 05:24:15;;;;;;;5.10;4.10;;;8.90;99.90;;;;;;5076920;28;20557;-74
2022/09/21 05:26:42;;;;;;;4.00;3.57;;;8.90;99.90;;;;;;5076912;28;20485;-74
2022/09/21 05:29:09;;;;;;;8.47;4.80;;;8.90;99.90;;;;;;5076911;28;20532;-74
2022/09/21 05:31:42;;;;;;;5.50;4.67;;;9.00;99.90;;;;;;5073804;28;20796;-74
2022/09/21 05:34:27;;;;;;;5.50;5.00;;;9.00;99.90;;;;;;5074069;28;20439;-74
2022/09/21 05:37:00;;;;;;;4.60;4.17;;;9.00;99.90;;;;;;5074290;28;20529;-73
2022/09/21 05:39:28;;;;;;;7.83;4.60;;;9.00;99.90;;;;;;5074884;28;20529;-74
2022/09/21 05:41:55;;;;;;;5.17;4.50;;;9.00;99.90;;;;;;5077093;28;20454;-74
2022/09/21 05:44:22;;;;;;;8.53;4.60;;;9.00;99.90;;;;;;5077182;28;20523;-74
2022/09/21 05:46:57;;;;;;;5.30;3.73;;;9.00;99.90;;;;;;5077127;28;20489;-74
2022/09/21 05:49:36;;;;;;;5.07;3.70;;;9.00;99.90;;;;;;5076570;28;20529;-73
2022/09/21 05:52:09;;;;;;;5.60;3.90;;;9.10;99.90;;;;;;5077691;28;20881;-75
2022/09/21 05:54:50;;;;;;;5.10;4.60;;;9.10;99.90;;;;;;5077457;28;20453;-75
2022/09/21 05:57:24;;;;;;;8.43;4.97;;;9.20;99.90;;;;;;5077094;28;20466;-75
2022/09/21 05:59:59;;;;;;;6.17;4.77;;;9.20;99.90;;;;;;5077282;28;20442;-75
2022/09/21 06:02:43;;;;;;;6.70;4.00;;;9.30;99.90;;;;;;5096321;28;20453;-76
2022/09/21 06:05:14;;;;;;;4.93;4.40;;;9.30;99.90;;;;;;5097200;28;20816;-75
2022/09/21 06:07:41;;;;;;;4.00;3.60;;;9.30;99.90;;;;;;5097556;28;20441;-76
2022/09/21 06:10:09;;;;;;;7.10;4.40;;;9.40;99.90;;;;;;5097227;28;20465;-75
2022/09/21 06:12:36;;;;;;;5.03;4.40;;;9.40;99.90;;;;;;5097309;28;20481;-75
2022/09/21 06:15:03;;;;;;;7.70;4.87;;;9.40;99.90;;;;;;5097431;28;20792;-75
2022/09/21 06:17:32;;;;;;;9.90;5.43;;;9.50;99.90;;;;;;5097121;28;20518;-75
2022/09/21 06:19:59;;;;;;;6.13;4.43;;;9.60;99.90;;;;;;5096956;28;20946;-74
2022/09/21 06:22:27;;;;;;;5.97;4.30;;;9.60;99.90;;;;;;5097070;28;20463;-74
2022/09/21 06:24:54;;;;;;;5.67;4.13;;;9.70;99.90;;;;;;5078634;28;20546;-75
2022/09/21 06:27:21;;;;;;;6.10;4.80;;;9.90;99.90;;;;;;5076112;28;20942;-75
2022/09/21 06:29:48;;;;;;;4.70;4.20;;;10.00;99.90;;;;;;5076651;28;20480;-75
2022/09/21 06:32:15;;;;;;;5.20;4.20;;;10.10;99.90;;;;;;5076511;28;20476;-74
2022/09/21 06:34:42;;;;;;;9.03;4.73;;;10.20;99.90;;;;;;5076791;28;20539;-75
2022/09/21 06:37:09;;;;;;;6.53;4.13;;;10.30;99.90;;;;;;5077105;28;20461;-72
2022/09/21 06:39:37;;;;;;;6.63;4.50;;;10.30;99.90;;;;;;5076195;28;20493;-73
2022/09/21 06:42:04;;;;;;;4.90;3.70;;;10.40;99.90;;;;;;5076137;28;20505;-72
2022/09/21 06:44:31;;;;;;;6.10;3.97;;;10.40;99.90;;;;;;5076728;28;20728;-72
2022/09/21 06:46:58;;;;;;;7.30;5.13;;;10.40;99.90;;;;;;5076514;28;20542;-72
2022/09/21 06:49:27;;;;;;;8.60;4.50;;;10.50;99.90;;;;;;5076415;28;20857;-73
2022/09/21 06:51:54;;;;;;;6.47;5.03;;;10.60;99.90;;;;;;5076120;28;20478;-72
2022/09/21 06:54:21;;;;;;;5.03;4.13;;;10.70;99.90;;;;;;5076088;28;20558;-72
2022/09/21 06:56:49;;;;;;;11.50;10.20;;;10.80;99.90;;;;;;5075896;28;20459;-72
2022/09/21 06:59:16;;;;;;;12.70;9.07;;;10.90;99.90;;;;;;5075865;28;20515;-72
2022/09/21 07:01:43;;;;;;;18.40;12.73;;;10.90;99.90;;;;;;5076473;28;20528;-72
2022/09/21 07:04:10;;;;;;;13.27;7.43;;;11.00;99.90;;;;;;5075846;28;21026;-72
2022/09/21 07:06:37;;;;;;;7.27;4.80;;;11.10;99.90;;;;;;5075890;28;20853;-72
2022/09/21 07:09:04;;;;;;;9.47;4.80;;;11.10;99.90;;;;;;5075368;28;20933;-72
2022/09/21 07:11:30;;;;;;;8.13;5.73;;;11.10;99.90;;;;;;5075537;28;20486;-73
2022/09/21 07:13:59;;;;;;;9.57;5.40;;;11.20;99.90;;;;;;5076129;28;20872;-75
2022/09/21 07:16:27;;;;;;;5.43;4.47;;;11.20;99.90;;;;;;5075443;28;20458;-74
2022/09/21 07:18:54;;;;;;;6.17;4.80;;;11.20;99.90;;;;;;5075437;28;20515;-75
2022/09/21 07:21:21;;;;;;;6.73;4.67;;;11.30;99.90;;;;;;5075429;28;20553;-75
2022/09/21 07:23:48;;;;;;;5.43;4.70;;;11.30;99.90;;;;;;5076504;28;20473;-76
2022/09/21 07:26:17;;;;;;;6.70;4.90;;;11.30;99.90;;;;;;5077235;28;20545;-75
2022/09/21 07:28:44;;;;;;;11.60;6.57;;;11.40;99.90;;;;;;5075727;28;20454;-75
2022/09/21 07:31:14;;;;;;;7.60;5.33;;;11.40;99.90;;;;;;5075453;28;20547;-75
2022/09/21 07:33:41;;;;;;;7.03;5.13;;;11.40;99.90;;;;;;5075130;28;20482;-74
2022/09/21 07:36:10;;;;;;;8.33;5.03;;;11.50;99.90;;;;;;5075031;28;20485;-74
2022/09/21 07:38:38;;;;;;;6.57;5.27;;;11.40;99.90;;;;;;5075384;28;20454;-74
2022/09/21 07:41:05;;;;;;;12.60;4.40;;;11.40;99.90;;;;;;5076076;28;20968;-72
2022/09/21 07:43:33;;;;;;;7.23;5.33;;;11.40;99.90;;;;;;5077872;28;20477;-74
2022/09/21 07:46:00;;;;;;;12.63;5.03;;;11.50;99.90;;;;;;5075259;28;20505;-74
2022/09/21 07:48:29;;;;;;;7.80;5.07;;;11.50;99.90;;;;;;5075142;28;20465;-74
2022/09/21 07:51:03;;;;;;;11.60;5.50;;;11.50;99.90;;;;;;5074700;28;20516;-74
2022/09/21 07:53:31;;;;;;;8.20;4.80;;;11.50;99.90;;;;;;5074737;28;20465;-74
2022/09/21 07:56:02;;;;;;;6.63;5.50;;;11.70;99.90;;;;;;5074864;28;20455;-72
2022/09/21 08:01:13;;;;;;;9.23;4.93;;;11.80;99.90;;;;;;5074677;28;20775;-74
2022/09/21 08:03:41;;;;;;;6.90;4.80;;;11.90;99.90;;;;;;5073784;28;20803;-75
2022/09/21 08:06:09;;;;;;;6.60;4.37;;;12.00;99.90;;;;;;5074253;28;20485;-75
2022/09/21 08:08:36;;;;;;;5.90;4.80;;;12.10;99.90;;;;;;5074859;28;20744;-75
2022/09/21 08:11:04;;;;;;;6.23;4.10;;;12.20;99.90;;;;;;5074842;28;20454;-75
2022/09/21 08:13:31;;;;;;;4.30;3.90;;;12.30;99.90;;;;;;5074629;28;20996;-74
2022/09/21 08:15:59;;;;;;;4.77;3.70;;;12.30;99.90;;;;;;5074258;28;20485;-75
2022/09/21 08:18:26;;;;;;;6.30;4.53;;;12.30;99.90;;;;;;5074333;28;20458;-74
2022/09/21 08:20:55;;;;;;;8.60;4.47;;;12.40;99.90;;;;;;5074825;28;20541;-75
2022/09/21 08:23:22;;;;;;;4.70;4.03;;;12.50;99.90;;;;;;5074612;28;20531;-74
2022/09/21 08:25:49;;;;;;;5.30;4.63;;;12.50;99.90;;;;;;5074923;28;20469;-74
2022/09/21 08:28:17;;;;;;;6.90;5.10;;;12.50;99.90;;;;;;5075142;28;20453;-74
2022/09/21 08:30:44;;;;;;;6.33;4.63;;;12.60;99.90;;;;;;5074313;28;20544;-75
2022/09/21 08:33:11;;;;;;;7.83;4.00;;;12.60;99.90;;;;;;5074395;28;20525;-73
2022/09/21 08:35:38;;;;;;;5.43;4.40;;;12.70;99.90;;;;;;5074357;28;20490;-74
2022/09/21 08:38:06;;;;;;;4.33;3.93;;;12.70;99.90;;;;;;5074541;28;20539;-74
2022/09/21 08:40:34;;;;;;;4.17;3.80;;;12.70;99.90;;;;;;5074381;28;20454;-74
2022/09/21 08:43:04;;;;;;;6.60;3.83;;;12.80;99.90;;;;;;5074432;28;20459;-74
2022/09/21 08:45:35;;;;;;;5.53;3.97;;;12.90;99.90;;;;;;5074029;28;20489;-72
2022/09/21 08:48:06;;;;;;;4.93;4.30;;;13.10;99.90;;;;;;5074552;28;20443;-73
2022/09/21 08:50:39;;;;;;;5.53;4.47;;;13.20;99.90;;;;;;5074549;28;20452;-72
2022/09/21 08:53:13;;;;;;;5.97;4.20;;;13.20;99.90;;;;;;5074162;28;20556;-71
2022/09/21 08:55:40;;;;;;;5.07;4.50;;;13.30;99.90;;;;;;5074211;28;20528;-72
2022/09/21 08:58:21;;;;;;;6.30;4.37;;;13.30;99.90;;;;;;5074572;28;20464;-73
2022/09/21 09:00:52;;;;;;;8.40;4.67;;;13.40;99.90;;;;;;5074658;28;20456;-72
2022/09/21 09:03:35;;;;;;;5.93;4.43;;;13.50;99.90;;;;;;5075035;28;20974;-72
2022/09/21 09:06:08;;;;;;;6.07;4.50;;;13.60;99.90;;;;;;5074067;28;20922;-73
2022/09/21 09:09:02;;;;;;;8.60;3.90;;;13.70;99.90;;;;;;5074229;28;20846;-73
2022/09/21 09:11:51;;;;;;;4.97;4.50;;;13.80;99.90;;;;;;5071209;28;20482;-73
2022/09/21 09:14:48;;;;;;;6.20;4.37;;;14.00;99.90;;;;;;5074888;28;20466;-72
2022/09/21 09:17:27;;;;;;;6.53;4.00;;;14.10;99.90;;;;;;5049756;28;20454;-73
2022/09/21 09:19:58;;;;;;;9.57;4.30;;;14.20;99.90;;;;;;5078982;28;20525;-73
2022/09/21 09:22:30;;;;;;;4.30;3.90;;;14.20;99.90;;;;;;5080007;28;20473;-72
2022/09/21 09:25:03;;;;;;;6.33;4.13;;;14.20;99.90;;;;;;5078950;28;20449;-73
2022/09/21 09:27:35;;;;;;;5.23;4.30;;;14.10;99.90;;;;;;5078078;28;20737;-73
2022/09/21 09:30:05;;;;;;;6.33;3.90;;;14.00;99.90;;;;;;5077846;28;20832;-73
2022/09/21 09:32:40;;;;;;;4.93;4.00;;;14.00;99.90;;;;;;5080442;28;21017;-74
2022/09/21 09:35:20;;;;;;;4.53;3.43;;;13.90;99.90;;;;;;5079567;28;20438;-73
2022/09/21 09:37:48;;;;;;;6.33;4.13;;;13.80;99.90;;;;;;5077841;28;20813;-73
2022/09/21 09:40:27;;;;;;;6.10;4.17;;;13.90;99.90;;;;;;5077959;28;20549;-73
2022/09/21 09:43:02;;;;;;;3.90;3.50;;;13.80;99.90;;;;;;5077634;28;20720;-72
2022/09/21 09:45:43;;;;;;;5.07;3.30;;;13.80;99.90;;;;;;5077352;28;20906;-73
2022/09/21 09:48:29;;;;;;;4.40;3.20;;;13.90;99.90;;;;;;5077387;28;20442;-72
2022/09/21 09:50:56;;;;;;;9.50;3.70;;;13.90;99.90;;;;;;5077543;28;20450;-75
2022/09/21 09:53:25;;;;;;;4.20;3.13;;;14.00;99.90;;;;;;5077353;28;20625;-76
2022/09/21 09:55:54;;;;;;;5.50;3.83;;;14.00;99.90;;;;;;5077053;28;20458;-75
2022/09/21 09:58:24;;;;;;;3.37;3.00;;;14.00;99.90;;;;;;5077169;28;20520;-76
2022/09/21 10:00:52;;;;;;;6.10;2.60;;;14.00;99.90;;;;;;5077530;28;20923;-76
2022/09/21 10:03:22;;;;;;;2.90;2.27;;;14.10;99.90;;;;;;5077267;28;20811;-76
2022/09/21 10:05:49;;;;;;;3.93;3.17;;;14.10;99.90;;;;;;5079939;28;20934;-76
2022/09/21 10:08:40;;;;;;;4.40;3.30;;;14.20;99.90;;;;;;5080377;28;20438;-75
2022/09/21 10:11:10;;;;;;;4.57;2.67;;;14.30;99.90;;;;;;5078208;28;20451;-75
2022/09/21 10:13:38;;;;;;;2.60;2.27;;;14.40;99.90;;;;;;5078209;28;20957;-76
2022/09/21 10:16:11;;;;;;;3.60;2.63;;;14.50;99.90;;;;;;5076916;28;20462;-76
2022/09/21 10:18:40;;;;;;;6.50;2.57;;;14.70;99.90;;;;;;5077196;28;20443;-75
2022/09/21 10:21:09;;;;;;;4.27;2.50;;;14.90;99.90;;;;;;5076262;28;21015;-76
2022/09/21 10:23:38;;;;;;;4.53;2.27;;;15.10;99.90;;;;;;5076889;28;20582;-75
2022/09/21 10:26:09;;;;;;;3.17;2.30;;;15.20;99.90;;;;;;5075660;28;20541;-75
2022/09/21 10:28:37;;;;;;;2.10;1.60;;;15.40;99.90;;;;;;5077233;28;20447;-75
2022/09/21 10:31:21;;;;;;;2.00;1.50;;;15.70;99.90;;;;;;5076724;28;20494;-75
2022/09/21 10:33:53;;;;;;;1.50;1.40;;;15.90;99.90;;;;;;5076530;28;20482;-76
2022/09/21 10:36:32;;;;;;;1.50;1.23;;;16.20;99.90;;;;;;5076953;28;20521;-75
2022/09/21 10:39:20;;;;;;;2.27;1.27;;;16.40;99.90;;;;;;5076734;28;20468;-75
2022/09/21 10:42:01;;;;;;;1.87;1.17;;;16.40;99.90;;;;;;5077041;28;20524;-75
2022/09/21 10:44:35;;;;;;;2.33;1.23;;;16.40;99.90;;;;;;5076728;28;20843;-76
2022/09/21 10:47:21;;;;;;;3.70;2.20;;;16.50;99.90;;;;;;5076469;28;20521;-76
2022/09/21 10:49:51;;;;;;;1.60;1.27;;;16.60;99.90;;;;;;5076237;28;20439;-75
2022/09/21 10:52:19;;;;;;;1.93;0.90;;;16.60;99.90;;;;;;5076069;28;20553;-76
2022/09/21 10:54:51;;;;;;;1.90;1.00;;;16.60;99.90;;;;;;5075650;28;20482;-75
2022/09/21 10:57:23;;;;;;;6.73;1.30;;;16.60;99.90;;;;;;5076051;28;20482;-74
2022/09/21 10:59:50;;;;;;;1.37;0.80;;;16.70;99.90;;;;;;5075977;28;20446;-75
2022/09/21 11:02:35;;;;;;;1.30;1.00;;;16.80;99.90;;;;;;5075527;28;20914;-75
2022/09/21 11:05:09;;;;;;;1.70;1.50;;;16.90;99.90;;;;;;5075557;28;20868;-76
2022/09/21 11:07:43;;;;;;;3.20;1.00;;;17.10;99.90;;;;;;5075843;28;20442;-76
2022/09/21 11:10:18;;;;;;;2.13;1.10;;;17.30;99.90;;;;;;5075243;28;20549;-76
2022/09/21 11:12:58;;;;;;;3.53;1.00;;;17.50;99.90;;;;;;5075961;28;20549;-76
2022/09/21 11:15:37;;;;;;;1.30;0.90;;;17.60;99.90;;;;;;5075734;28;20470;-76
2022/09/21 11:18:13;;;;;;;1.73;1.00;;;17.70;99.90;;;;;;5077126;28;20446;-76
2022/09/21 11:20:46;;;;;;;2.00;1.00;;;18.00;99.90;;;;;;5076038;28;20462;-75
2022/09/21 11:23:27;;;;;;;3.73;1.83;;;18.20;99.90;;;;;;5078702;28;20439;-75
2022/09/21 11:26:02;;;;;;;2.00;1.33;;;18.10;99.90;;;;;;5075389;28;20537;-74
2022/09/21 11:28:39;;;;;;;1.80;1.40;;;17.90;99.90;;;;;;5074762;28;20457;-75
2022/09/21 11:31:27;;;;;;;2.27;1.00;;;17.70;99.90;;;;;;5075611;28;20453;-76
2022/09/21 11:34:13;;;;;;;1.40;1.03;;;17.70;99.90;;;;;;5076477;28;20922;-76
2022/09/21 11:36:54;;;;;;;1.50;0.90;;;17.70;99.90;;;;;;5075369;28;20462;-76
2022/09/21 11:39:31;;;;;;;1.10;0.80;;;17.60;99.90;;;;;;5075857;28;20748;-76
2022/09/21 11:42:24;;;;;;;1.73;1.13;;;17.50;99.90;;;;;;5077920;28;20502;-77
2022/09/21 11:44:55;;;;;;;3.57;1.30;;;17.60;99.90;;;;;;5076145;28;20461;-77
2022/09/21 11:47:54;;;;;;;1.93;0.80;;;17.70;99.90;;;;;;5074970;28;20449;-76
2022/09/21 11:50:40;;;;;;;3.50;0.93;;;17.70;99.90;;;;;;5074879;28;20470;-76
2022/09/21 11:53:23;;;;;;;2.03;0.90;;;17.60;99.90;;;;;;5075146;28;20622;-76
2022/09/21 11:56:28;;;;;;;2.27;0.90;;;17.60;99.90;;;;;;5075029;28;20459;-76
2022/09/21 11:59:05;;;;;;;2.43;1.13;;;17.70;99.90;;;;;;5074551;28;20458;-76
2022/09/21 12:01:53;;;;;;;1.10;0.90;;;17.60;99.90;;;;;;5074879;28;20442;-76
2022/09/21 12:04:42;;;;;;;1.30;0.83;;;17.60;99.90;;;;;;5074465;28;20565;-76
2022/09/21 12:07:29;;;;;;;1.47;1.03;;;17.50;99.90;;;;;;5075125;28;20513;-76
2022/09/21 12:10:15;;;;;;;1.40;0.90;;;17.40;99.90;;;;;;5074545;28;20533;-76
2022/09/21 12:12:49;;;;;;;3.07;2.10;;;17.30;99.90;;;;;;5074761;28;20539;-76
2022/09/21 12:15:23;;;;;;;2.87;1.40;;;17.30;99.90;;;;;;5075053;28;20614;-75
2022/09/21 12:18:00;;;;;;;2.40;0.90;;;17.60;99.90;;;;;;5075373;28;20834;-76
2022/09/21 12:20:38;;;;;;;2.73;0.90;;;18.80;99.90;;;;;;5075346;28;20843;-75
2022/09/21 12:23:12;;;;;;;1.50;1.10;;;20.50;99.90;;;;;;5075056;28;20449;-74
2022/09/21 12:25:43;;;;;;;2.77;0.80;;;22.10;99.90;;;;;;5077824;28;20437;-76
2022/09/21 12:28:16;;;;;;;4.80;1.20;;;23.50;99.90;;;;;;5076086;28;20477;-76
2022/09/21 12:30:49;;;;;;;1.30;0.87;;;24.90;99.90;;;;;;5075006;28;20515;-75
2022/09/21 12:33:25;;;;;;;1.60;0.80;;;26.00;94.40;;;;;;5074378;28;20474;-76
2022/09/21 12:35:58;;;;;;;1.40;0.90;;;26.40;88.30;;;;;;5075711;28;20540;-76
2022/09/21 12:38:31;;;;;;;1.87;0.97;;;25.70;84.70;;;;;;5076970;28;20890;-76
2022/09/21 12:41:06;;;;;;;1.37;1.00;;;24.80;85.20;;;;;;5076078;28;20529;-77
2022/09/21 12:43:39;;;;;;;1.83;1.10;;;23.50;90.30;;;;;;5074794;28;20466;-76
2022/09/21 12:46:12;;;;;;;2.20;0.90;;;22.40;93.90;;;;;;5074914;28;20461;-76
2022/09/21 12:48:42;;;;;;;1.50;1.00;;;21.50;97.20;;;;;;5074498;28;20974;-77
2022/09/21 12:51:15;;;;;;;2.13;1.27;;;20.90;99.90;;;;;;5078877;28;20458;-76
2022/09/21 12:53:46;;;;;;;1.30;1.00;;;20.30;99.90;;;;;;5078672;28;20569;-77
2022/09/21 12:56:22;;;;;;;1.67;1.20;;;19.70;99.90;;;;;;5078801;28;20841;-73
2022/09/21 12:59:00;;;;;;;4.10;2.13;;;19.20;99.90;;;;;;5078472;28;20438;-74
2022/09/21 13:04:59;;;;;;;1.40;1.10;;;19.40;99.90;;;;;;5077156;28;20822;-78
2022/09/21 13:08:03;;;;;;;2.43;0.90;;;21.30;99.90;;;;;;5080837;28;20435;-77
2022/09/21 13:10:57;;;;;;;3.07;1.13;;;22.90;99.90;;;;;;5034651;28;20793;-78
2022/09/21 13:13:32;;;;;;;1.53;0.80;;;24.60;99.90;;;;;;5080052;28;20539;-74
2022/09/21 13:16:00;;;;;;;1.40;1.00;;;25.80;92.90;;;;;;5080770;28;20544;-75
2022/09/21 13:18:31;;;;;;;1.40;0.83;;;26.70;88.10;;;;;;5078560;28;20540;-77
2022/09/21 13:21:00;;;;;;;1.40;0.80;;;27.10;74.90;;;;;;5079152;28;20522;-76
2022/09/21 13:23:34;;;;;;;2.60;0.87;;;26.70;73.10;;;;;;5079257;28;20460;-77
2022/09/21 13:26:04;;;;;;;1.47;0.90;;;26.40;72.30;;;;;;5078050;28;20446;-77
2022/09/21 13:29:00;;;;;;;7.93;1.17;;;26.40;71.40;;;;;;5078713;28;20768;-75